Time;durP1;ratioP1;P1;durP2;ratioP2;P2;SDS_P1;SDS_P2;PMS_P1;PMS_P2;Temp;Humidity;BMP_temperature;BMP_pressure;BME280_temperature;BME280_humidity;BME280_pressure;Samples;Min_cycle;Max_cycle;Signal;HPM_P1;HPM_P2
2022/06/20 00:01:58;;;;;;;;;45.25;38.00;;;;;;;;5054994;28;45426;-69
2022/06/20 00:04:24;;;;;;;;;38.75;34.50;;;;;;;;5048778;28;45494;-69
2022/06/20 00:06:49;;;;;;;;;39.00;33.00;;;;;;;;5052163;28;45281;-69
2022/06/20 00:09:14;;;;;;;;;44.75;36.00;;;;;;;;5045214;28;45270;-69
2022/06/20 00:11:44;;;;;;;;;45.00;36.00;;;;;;;;5053082;28;45217;-69
2022/06/20 00:14:15;;;;;;;;;41.25;35.50;;;;;;;;5044763;28;45702;-69
2022/06/20 00:16:40;;;;;;;;;46.50;36.50;;;;;;;;5041448;28;45410;-70
2022/06/20 00:19:05;;;;;;;;;37.75;33.50;;;;;;;;5047908;28;45357;-69
2022/06/20 00:21:30;;;;;;;;;37.00;32.75;;;;;;;;5052939;28;45205;-69
2022/06/20 00:23:56;;;;;;;;;37.00;34.00;;;;;;;;5046656;28;45459;-69
2022/06/20 00:26:21;;;;;;;;;42.50;36.50;;;;;;;;5050599;28;46766;-69
2022/06/20 00:28:46;;;;;;;;;40.25;34.75;;;;;;;;5053121;28;45355;-69
2022/06/20 00:31:12;;;;;;;;;41.25;34.75;;;;;;;;5032820;28;45465;-69
2022/06/20 00:33:37;;;;;;;;;42.50;36.50;;;;;;;;5038019;28;46821;-69
2022/06/20 00:36:03;;;;;;;;;43.75;36.25;;;;;;;;5043175;28;45350;-69
2022/06/20 00:38:28;;;;;;;;;40.75;35.75;;;;;;;;5046712;28;45486;-69
2022/06/20 00:40:55;;;;;;;;;42.00;35.75;;;;;;;;5057593;28;45681;-69
2022/06/20 00:43:23;;;;;;;;;40.25;33.50;;;;;;;;5052629;28;45481;-69
2022/06/20 00:45:51;;;;;;;;;41.00;35.75;;;;;;;;5058067;28;46299;-69
2022/06/20 00:48:21;;;;;;;;;44.75;36.25;;;;;;;;5054017;28;45553;-70
2022/06/20 00:50:48;;;;;;;;;40.75;34.25;;;;;;;;5058035;28;45660;-69
2022/06/20 00:53:49;;;;;;;;;44.50;34.25;;;;;;;;5032150;28;46492;-69
2022/06/20 00:56:28;;;;;;;;;40.75;33.75;;;;;;;;4980630;28;46413;-70
2022/06/20 00:58:59;;;;;;;;;38.50;33.50;;;;;;;;5045007;28;45291;-70
2022/06/20 01:01:33;;;;;;;;;38.00;33.00;;;;;;;;5053290;28;45328;-69
2022/06/20 01:04:02;;;;;;;;;39.75;34.00;;;;;;;;5050078;28;45423;-69
2022/06/20 01:06:35;;;;;;;;;40.00;33.50;;;;;;;;5049887;28;45432;-69
2022/06/20 01:09:05;;;;;;;;;42.00;35.25;;;;;;;;5050190;28;45409;-70
2022/06/20 01:11:44;;;;;;;;;39.50;34.50;;;;;;;;5048449;28;45476;-70
2022/06/20 01:14:38;;;;;;;;;36.25;31.75;;;;;;;;5053131;28;45347;-69
2022/06/20 01:17:21;;;;;;;;;45.25;36.50;;;;;;;;5033425;28;46476;-70
2022/06/20 01:19:59;;;;;;;;;40.50;31.25;;;;;;;;5047969;28;45797;-70
2022/06/20 01:22:34;;;;;;;;;42.00;35.25;;;;;;;;5048511;28;45495;-70
2022/06/20 01:25:06;;;;;;;;;36.50;33.00;;;;;;;;5052600;28;45344;-70
2022/06/20 01:27:31;;;;;;;;;37.50;33.25;;;;;;;;5032002;28;46768;-70
2022/06/20 01:29:56;;;;;;;;;38.50;33.75;;;;;;;;5056093;28;45589;-71
2022/06/20 01:32:22;;;;;;;;;38.00;32.50;;;;;;;;5050982;28;45811;-70
2022/06/20 01:34:48;;;;;;;;;44.25;35.50;;;;;;;;5057755;28;45652;-69
2022/06/20 01:37:23;;;;;;;;;39.50;33.00;;;;;;;;5033128;28;46952;-71
2022/06/20 01:39:49;;;;;;;;;38.75;33.25;;;;;;;;5032748;28;45563;-70
2022/06/20 01:42:21;;;;;;;;;40.25;33.75;;;;;;;;5047478;28;45377;-70
2022/06/20 01:44:52;;;;;;;;;34.25;31.50;;;;;;;;5050430;28;45395;-71
2022/06/20 01:47:17;;;;;;;;;42.75;35.00;;;;;;;;5047589;28;45529;-70
2022/06/20 01:49:45;;;;;;;;;34.75;32.50;;;;;;;;5057701;28;45420;-70
2022/06/20 01:52:16;;;;;;;;;41.75;34.00;;;;;;;;5055616;28;45146;-69
2022/06/20 01:54:46;;;;;;;;;37.25;32.25;;;;;;;;5037189;28;45376;-70
2022/06/20 01:57:12;;;;;;;;;42.75;33.50;;;;;;;;5033217;28;47382;-70
2022/06/20 01:59:41;;;;;;;;;41.75;35.50;;;;;;;;5055929;28;45328;-70
2022/06/20 02:02:07;;;;;;;;;38.75;33.50;;;;;;;;5033157;28;46724;-69
2022/06/20 02:04:33;;;;;;;;;37.00;33.75;;;;;;;;5050690;28;45293;-70
2022/06/20 02:07:00;;;;;;;;;37.75;32.25;;;;;;;;5050102;28;45529;-69
2022/06/20 02:09:26;;;;;;;;;40.25;34.00;;;;;;;;5056044;28;45304;-69
2022/06/20 02:11:51;;;;;;;;;33.75;31.00;;;;;;;;5050057;28;45236;-69
2022/06/20 02:14:32;;;;;;;;;39.00;34.25;;;;;;;;5046862;28;45615;-69
2022/06/20 02:17:10;;;;;;;;;40.00;34.25;;;;;;;;5049199;28;45278;-70
2022/06/20 02:19:39;;;;;;;;;38.25;32.00;;;;;;;;5045882;28;45316;-69
2022/06/20 02:22:06;;;;;;;;;37.50;31.00;;;;;;;;5047176;28;45265;-69
2022/06/20 02:24:33;;;;;;;;;32.75;29.25;;;;;;;;5056648;28;45282;-69
2022/06/20 02:27:01;;;;;;;;;33.00;27.75;;;;;;;;5046575;28;45458;-69
2022/06/20 02:29:28;;;;;;;;;38.75;33.00;;;;;;;;5036169;28;45563;-70
2022/06/20 02:32:06;;;;;;;;;34.00;30.00;;;;;;;;5047985;28;45301;-69
2022/06/20 02:34:31;;;;;;;;;33.50;31.50;;;;;;;;5044825;28;45361;-69
2022/06/20 02:37:01;;;;;;;;;32.75;29.75;;;;;;;;5045717;28;46394;-69
2022/06/20 02:39:26;;;;;;;;;30.25;29.00;;;;;;;;5038164;28;45347;-69
2022/06/20 02:41:55;;;;;;;;;29.00;27.25;;;;;;;;5051141;28;45444;-69
2022/06/20 02:44:21;;;;;;;;;36.75;30.50;;;;;;;;5057067;28;45540;-69
2022/06/20 02:46:48;;;;;;;;;37.50;30.75;;;;;;;;5043243;28;45260;-69
2022/06/20 02:49:15;;;;;;;;;33.00;30.25;;;;;;;;5022479;28;45221;-69
2022/06/20 02:51:41;;;;;;;;;29.00;27.75;;;;;;;;5033714;28;45403;-69
2022/06/20 02:54:09;;;;;;;;;32.67;28.67;;;;;;;;5037143;28;46723;-69
2022/06/20 02:56:37;;;;;;;;;31.25;28.00;;;;;;;;5054336;28;45438;-69
2022/06/20 02:59:06;;;;;;;;;30.50;24.25;;;;;;;;5045016;28;45213;-69
2022/06/20 03:01:40;;;;;;;;;34.50;31.50;;;;;;;;5052239;28;45261;-69
2022/06/20 03:04:07;;;;;;;;;31.00;28.50;;;;;;;;5052866;28;45388;-69
2022/06/20 03:06:35;;;;;;;;;29.50;29.00;;;;;;;;5046039;28;45390;-69
2022/06/20 03:09:01;;;;;;;;;31.25;28.75;;;;;;;;5035182;28;45397;-69
2022/06/20 03:11:27;;;;;;;;;37.50;30.50;;;;;;;;5024428;28;45572;-68
2022/06/20 03:13:53;;;;;;;;;35.00;32.00;;;;;;;;5048804;28;45532;-69
2022/06/20 03:16:21;;;;;;;;;33.75;30.25;;;;;;;;5034260;28;47415;-69
2022/06/20 03:18:49;;;;;;;;;30.25;27.50;;;;;;;;5047047;28;45249;-68
2022/06/20 03:21:15;;;;;;;;;33.25;30.75;;;;;;;;5041399;28;45384;-69
2022/06/20 03:23:40;;;;;;;;;30.33;25.33;;;;;;;;5047649;28;45415;-69
2022/06/20 03:26:11;;;;;;;;;32.75;29.50;;;;;;;;5055085;28;45440;-68
2022/06/20 03:28:37;;;;;;;;;31.25;29.75;;;;;;;;5047272;28;45458;-69
2022/06/20 03:31:03;;;;;;;;;35.50;32.25;;;;;;;;5039073;28;45463;-69
2022/06/20 03:33:29;;;;;;;;;35.75;30.75;;;;;;;;5053516;28;45458;-69
2022/06/20 03:35:56;;;;;;;;;39.75;32.75;;;;;;;;5052858;28;45443;-68
2022/06/20 03:38:22;;;;;;;;;41.00;34.00;;;;;;;;5054662;28;45312;-68
2022/06/20 03:40:48;;;;;;;;;34.50;32.00;;;;;;;;5041152;28;45659;-68
2022/06/20 03:43:15;;;;;;;;;43.00;34.50;;;;;;;;5055168;28;45616;-69
2022/06/20 03:45:43;;;;;;;;;37.75;33.25;;;;;;;;5031295;28;47080;-70
2022/06/20 03:48:11;;;;;;;;;35.50;31.75;;;;;;;;5052906;28;45807;-69
2022/06/20 03:50:38;;;;;;;;;33.00;31.00;;;;;;;;5050751;28;45345;-69
2022/06/20 03:53:10;;;;;;;;;41.25;35.00;;;;;;;;5036068;28;45929;-69
2022/06/20 03:55:48;;;;;;;;;34.50;30.00;;;;;;;;5058976;28;46134;-69
2022/06/20 03:58:17;;;;;;;;;33.25;31.25;;;;;;;;5055644;28;45423;-69
2022/06/20 04:00:54;;;;;;;;;43.25;33.00;;;;;;;;5040245;28;45716;-69
2022/06/20 04:03:40;;;;;;;;;40.50;35.00;;;;;;;;5055564;28;45345;-69
2022/06/20 04:06:09;;;;;;;;;34.00;32.00;;;;;;;;5056688;28;45491;-68
2022/06/20 04:11:51;;;;;;;;;38.00;32.50;;;;;;;;5030743;28;45366;-68
2022/06/20 04:14:22;;;;;;;;;34.75;30.75;;;;;;;;5051792;28;45468;-68
2022/06/20 04:16:52;;;;;;;;;38.50;33.00;;;;;;;;5054582;28;46400;-68
2022/06/20 04:19:23;;;;;;;;;34.75;30.75;;;;;;;;5054486;28;45372;-68
2022/06/20 04:21:56;;;;;;;;;38.50;32.25;;;;;;;;5050994;28;45468;-68
2022/06/20 04:24:27;;;;;;;;;38.50;33.00;;;;;;;;5049369;28;45451;-68
2022/06/20 04:26:53;;;;;;;;;38.00;32.25;;;;;;;;5037081;28;47493;-68
2022/06/20 04:29:42;;;;;;;;;35.75;30.75;;;;;;;;5050031;28;45625;-68
2022/06/20 04:32:16;;;;;;;;;35.75;30.25;;;;;;;;5040420;28;45252;-68
2022/06/20 04:35:02;;;;;;;;;36.25;32.25;;;;;;;;5056837;28;45478;-68
2022/06/20 04:37:27;;;;;;;;;32.50;31.00;;;;;;;;5055921;28;45369;-68
2022/06/20 04:40:11;;;;;;;;;32.75;27.75;;;;;;;;5044370;28;44704;-68
2022/06/20 04:42:44;;;;;;;;;28.75;28.50;;;;;;;;5052001;28;45301;-68
2022/06/20 04:45:13;;;;;;;;;34.50;29.25;;;;;;;;5042789;28;45302;-69
2022/06/20 04:47:38;;;;;;;;;29.50;27.25;;;;;;;;5050216;28;46873;-68
2022/06/20 04:50:04;;;;;;;;;37.50;30.50;;;;;;;;5056901;28;45276;-69
2022/06/20 04:52:30;;;;;;;;;30.75;28.25;;;;;;;;5046835;28;45582;-68
2022/06/20 04:54:56;;;;;;;;;32.00;28.25;;;;;;;;5057346;28;45268;-69
2022/06/20 04:57:25;;;;;;;;;33.00;30.25;;;;;;;;5033517;28;47980;-68
2022/06/20 04:59:51;;;;;;;;;34.50;31.75;;;;;;;;5033121;28;45324;-68
2022/06/20 05:02:19;;;;;;;;;34.75;31.25;;;;;;;;5054422;28;45542;-68
2022/06/20 05:04:47;;;;;;;;;29.00;26.50;;;;;;;;5056609;28;45219;-68
2022/06/20 05:07:20;;;;;;;;;38.00;31.50;;;;;;;;5054043;28;45562;-68
2022/06/20 05:09:48;;;;;;;;;29.75;26.50;;;;;;;;5050920;28;46435;-68
2022/06/20 05:12:20;;;;;;;;;33.25;30.00;;;;;;;;5045440;28;45493;-68
2022/06/20 05:14:58;;;;;;;;;32.50;28.00;;;;;;;;5052947;28;45399;-68
2022/06/20 05:17:26;;;;;;;;;31.75;27.75;;;;;;;;5035219;28;46687;-68
2022/06/20 05:19:54;;;;;;;;;26.00;22.33;;;;;;;;5035263;28;45344;-69
2022/06/20 05:22:24;;;;;;;;;31.25;26.75;;;;;;;;5053220;28;45407;-68
2022/06/20 05:24:50;;;;;;;;;22.25;22.00;;;;;;;;5053778;28;45384;-67
2022/06/20 05:27:19;;;;;;;;;28.25;25.25;;;;;;;;5046437;28;46135;-67
2022/06/20 05:29:46;;;;;;;;;22.00;20.33;;;;;;;;5055783;28;45288;-67
2022/06/20 05:32:18;;;;;;;;;26.00;24.75;;;;;;;;5049109;28;45494;-67
2022/06/20 05:35:02;;;;;;;;;21.00;20.33;;;;;;;;5045185;28;45420;-68
2022/06/20 05:37:37;;;;;;;;;24.25;23.00;;;;;;;;5036883;28;47388;-68
2022/06/20 05:40:10;;;;;;;;;21.00;20.00;;;;;;;;5037740;28;45359;-68
2022/06/20 05:42:36;;;;;;;;;27.33;22.00;;;;;;;;5052162;28;45314;-68
2022/06/20 05:45:12;;;;;;;;;23.00;19.67;;;;;;;;5056411;28;45387;-68
2022/06/20 05:47:38;;;;;;;;;19.00;17.33;;;;;;;;5049462;28;45344;-68
2022/06/20 05:50:22;;;;;;;;;21.67;21.33;;;;;;;;5051600;28;45452;-68
2022/06/20 05:52:48;;;;;;;;;19.00;17.00;;;;;;;;5053649;28;45514;-68
2022/06/20 05:55:21;;;;;;;;;20.00;17.67;;;;;;;;5051212;28;45512;-68
2022/06/20 05:57:50;;;;;;;;;22.33;18.33;;;;;;;;5031963;28;46608;-68
2022/06/20 06:00:19;;;;;;;;;20.00;18.33;;;;;;;;5055536;28;45360;-68
2022/06/20 06:02:50;;;;;;;;;19.00;19.00;;;;;;;;5048176;28;45484;-68
2022/06/20 06:05:15;;;;;;;;;17.67;17.00;;;;;;;;5056355;28;45504;-68
2022/06/20 06:07:40;;;;;;;;;20.67;18.33;;;;;;;;5047545;28;45965;-68
2022/06/20 06:10:24;;;;;;;;;20.00;16.00;;;;;;;;5053375;28;45375;-68
2022/06/20 06:13:00;;;;;;;;;19.00;17.67;;;;;;;;5027669;28;45595;-68
2022/06/20 06:15:28;;;;;;;;;16.67;16.00;;;;;;;;5051317;28;45276;-68
2022/06/20 06:17:57;;;;;;;;;18.67;14.67;;;;;;;;5048615;28;45517;-68
2022/06/20 06:20:24;;;;;;;;;20.67;17.00;;;;;;;;5049453;28;45455;-68
2022/06/20 06:22:53;;;;;;;;;15.33;14.00;;;;;;;;5046847;28;45242;-68
2022/06/20 06:25:35;;;;;;;;;13.67;13.67;;;;;;;;5051073;28;45490;-69
2022/06/20 06:28:19;;;;;;;;;13.33;12.33;;;;;;;;5036736;28;47113;-68
2022/06/20 06:30:44;;;;;;;;;15.67;14.33;;;;;;;;5034597;28;45659;-68
2022/06/20 06:33:20;;;;;;;;;15.33;15.00;;;;;;;;5050133;28;45240;-67
2022/06/20 06:35:47;;;;;;;;;16.67;13.67;;;;;;;;5049392;28;45377;-68
2022/06/20 06:38:19;;;;;;;;;15.00;15.00;;;;;;;;5031861;28;48165;-68
2022/06/20 06:40:46;;;;;;;;;15.00;13.67;;;;;;;;5050253;28;45366;-68
2022/06/20 06:43:14;;;;;;;;;12.67;12.00;;;;;;;;5053661;28;45233;-68
2022/06/20 06:45:41;;;;;;;;;17.00;15.00;;;;;;;;5030034;28;45681;-68
2022/06/20 06:48:13;;;;;;;;;15.00;13.33;;;;;;;;5033360;28;47143;-68
2022/06/20 06:50:51;;;;;;;;;20.33;16.00;;;;;;;;5040514;28;45403;-68
2022/06/20 06:53:19;;;;;;;;;17.00;16.00;;;;;;;;5041131;28;45432;-68
2022/06/20 06:55:48;;;;;;;;;16.67;13.67;;;;;;;;5043302;28;45521;-67
2022/06/20 06:58:27;;;;;;;;;15.00;12.00;;;;;;;;5044395;28;45522;-68
2022/06/20 07:00:55;;;;;;;;;20.67;19.00;;;;;;;;5027265;28;45517;-68
2022/06/20 07:03:24;;;;;;;;;10.00;10.00;;;;;;;;5050073;28;45305;-68
2022/06/20 07:05:53;;;;;;;;;16.67;16.33;;;;;;;;5050784;28;45797;-69
2022/06/20 07:08:23;;;;;;;;;15.67;15.00;;;;;;;;5048380;28;45527;-68
2022/06/20 07:11:05;;;;;;;;;18.33;16.33;;;;;;;;5048430;28;45363;-68
2022/06/20 07:13:43;;;;;;;;;21.33;19.00;;;;;;;;5032263;28;45690;-68
2022/06/20 07:16:16;;;;;;;;;24.25;18.00;;;;;;;;5046840;28;45574;-68
2022/06/20 07:18:43;;;;;;;;;19.00;17.67;;;;;;;;5051260;28;46166;-68
2022/06/20 07:21:14;;;;;;;;;18.33;17.00;;;;;;;;5046103;28;45534;-68
2022/06/20 07:23:39;;;;;;;;;18.33;17.33;;;;;;;;5050319;28;45433;-68
2022/06/20 07:26:05;;;;;;;;;19.00;16.75;;;;;;;;5054131;28;45329;-69
2022/06/20 07:28:46;;;;;;;;;19.50;19.00;;;;;;;;5047171;28;46341;-68
2022/06/20 07:31:33;;;;;;;;;18.50;18.25;;;;;;;;5049617;28;45308;-68
2022/06/20 07:34:08;;;;;;;;;25.25;21.50;;;;;;;;5029266;28;45480;-69
2022/06/20 07:36:38;;;;;;;;;24.00;21.75;;;;;;;;5050434;28;45457;-67
2022/06/20 07:39:10;;;;;;;;;23.75;22.50;;;;;;;;5053855;28;45332;-68
2022/06/20 07:41:40;;;;;;;;;21.75;20.50;;;;;;;;5052750;28;45414;-68
2022/06/20 07:44:18;;;;;;;;;23.75;20.75;;;;;;;;5043827;28;45454;-68
2022/06/20 07:46:54;;;;;;;;;23.50;22.25;;;;;;;;5046743;28;45601;-68
2022/06/20 07:49:23;;;;;;;;;24.75;22.50;;;;;;;;5053026;28;46574;-68
2022/06/20 07:51:51;;;;;;;;;25.00;22.75;;;;;;;;5042847;28;45471;-69
2022/06/20 07:54:29;;;;;;;;;23.00;21.00;;;;;;;;5042493;28;45472;-67
2022/06/20 07:57:00;;;;;;;;;26.25;25.50;;;;;;;;5043409;28;45506;-69
2022/06/20 07:59:37;;;;;;;;;21.00;19.75;;;;;;;;5043609;28;46865;-70
2022/06/20 08:02:21;;;;;;;;;25.75;21.50;;;;;;;;5035945;28;45325;-69
2022/06/20 08:04:49;;;;;;;;;21.25;21.00;;;;;;;;5052821;28;45506;-69
2022/06/20 08:07:20;;;;;;;;;26.50;25.00;;;;;;;;5053378;28;45409;-69
2022/06/20 08:09:48;;;;;;;;;19.00;19.00;;;;;;;;5042390;28;46963;-70
2022/06/20 08:12:13;;;;;;;;;24.25;21.75;;;;;;;;5052410;28;45546;-70
2022/06/20 08:14:44;;;;;;;;;21.00;21.00;;;;;;;;5039652;28;45218;-68
2022/06/20 08:17:11;;;;;;;;;22.75;19.75;;;;;;;;5054538;28;45456;-68
2022/06/20 08:19:37;;;;;;;;;24.00;20.00;;;;;;;;5042421;28;47692;-69
2022/06/20 08:22:02;;;;;;;;;17.67;16.00;;;;;;;;5035825;28;45637;-69
2022/06/20 08:24:31;;;;;;;;;23.33;19.67;;;;;;;;5056046;28;45285;-68
2022/06/20 08:27:00;;;;;;;;;22.25;22.25;;;;;;;;5052563;28;45225;-68
2022/06/20 08:29:31;;;;;;;;;24.67;19.00;;;;;;;;5056758;28;45276;-68
2022/06/20 08:32:02;;;;;;;;;24.00;19.00;;;;;;;;5050745;28;45396;-68
2022/06/20 08:34:33;;;;;;;;;24.00;22.25;;;;;;;;5056875;28;45344;-67
2022/06/20 08:37:12;;;;;;;;;22.00;18.67;;;;;;;;5053481;28;45558;-68
2022/06/20 08:39:38;;;;;;;;;19.67;17.67;;;;;;;;5050518;28;48151;-68
2022/06/20 08:42:22;;;;;;;;;28.50;21.00;;;;;;;;5045838;28;45376;-68
2022/06/20 08:45:00;;;;;;;;;23.00;20.25;;;;;;;;5036072;28;45305;-68
2022/06/20 08:47:44;;;;;;;;;22.00;20.33;;;;;;;;5045961;28;45394;-68
2022/06/20 08:50:28;;;;;;;;;25.00;19.33;;;;;;;;5049448;28;45420;-68
2022/06/20 08:53:12;;;;;;;;;22.25;19.75;;;;;;;;5053603;28;45478;-68
2022/06/20 08:55:58;;;;;;;;;25.33;20.33;;;;;;;;5052083;28;45288;-68
2022/06/20 08:58:36;;;;;;;;;19.00;18.00;;;;;;;;5055714;28;45387;-69
2022/06/20 09:01:19;;;;;;;;;19.00;19.00;;;;;;;;5054968;28;45961;-68
2022/06/20 09:03:48;;;;;;;;;21.67;19.00;;;;;;;;5033141;28;46075;-68
2022/06/20 09:06:24;;;;;;;;;23.67;21.00;;;;;;;;5038703;28;45333;-69
2022/06/20 09:09:08;;;;;;;;;20.33;18.00;;;;;;;;5056775;28;45427;-68
2022/06/20 09:11:33;;;;;;;;;20.67;20.67;;;;;;;;5043098;28;45370;-68
2022/06/20 09:14:11;;;;;;;;;20.00;20.00;;;;;;;;5028194;28;45463;-68
2022/06/20 09:16:43;;;;;;;;;20.67;20.67;;;;;;;;5033317;28;45361;-68
2022/06/20 09:19:31;;;;;;;;;25.00;23.00;;;;;;;;5044979;28;46534;-68
2022/06/20 09:21:56;;;;;;;;;24.33;21.67;;;;;;;;5048964;28;46333;-68
2022/06/20 09:24:40;;;;;;;;;25.00;20.33;;;;;;;;5040137;28;45337;-68
2022/06/20 09:27:08;;;;;;;;;22.00;22.00;;;;;;;;5046294;28;45962;-68
2022/06/20 09:29:34;;;;;;;;;21.00;20.00;;;;;;;;5033466;28;45490;-68
2022/06/20 09:32:08;;;;;;;;;21.67;18.67;;;;;;;;5050739;28;46221;-68
2022/06/20 09:34:51;;;;;;;;;23.00;19.00;;;;;;;;5056559;28;45275;-68
2022/06/20 09:37:17;;;;;;;;;25.67;21.33;;;;;;;;5053982;28;46293;-68
2022/06/20 09:39:55;;;;;;;;;29.33;21.67;;;;;;;;5057598;28;45397;-68
2022/06/20 09:42:20;;;;;;;;;22.33;18.00;;;;;;;;5050964;28;45593;-68
2022/06/20 09:44:51;;;;;;;;;20.67;19.00;;;;;;;;5051438;28;45195;-68
2022/06/20 09:47:32;;;;;;;;;23.00;20.00;;;;;;;;5045246;28;45590;-68
2022/06/20 09:50:12;;;;;;;;;22.00;19.00;;;;;;;;5058018;28;45489;-68
2022/06/20 09:52:40;;;;;;;;;24.33;19.67;;;;;;;;5047787;28;45439;-68
2022/06/20 09:55:35;;;;;;;;;21.67;21.00;;;;;;;;5040365;28;45430;-68
2022/06/20 09:58:07;;;;;;;;;22.00;20.33;;;;;;;;5001490;28;45620;-68
2022/06/20 10:00:56;;;;;;;;;23.33;21.33;;;;;;;;5057456;28;45352;-68
2022/06/20 10:03:41;;;;;;;;;21.33;18.67;;;;;;;;5051906;28;46252;-68
2022/06/20 10:06:11;;;;;;;;;18.33;18.00;;;;;;;;5046149;28;45501;-69
2022/06/20 10:08:42;;;;;;;;;23.33;20.67;;;;;;;;5042588;28;45267;-68
2022/06/20 10:11:16;;;;;;;;;18.00;18.00;;;;;;;;5044058;28;45775;-68
2022/06/20 10:13:58;;;;;;;;;18.67;16.00;;;;;;;;5045143;28;45674;-69
2022/06/20 10:16:49;;;;;;;;;17.00;16.67;;;;;;;;5041296;28;45455;-68
2022/06/20 10:19:14;;;;;;;;;18.33;16.00;;;;;;;;5006757;28;45419;-68
2022/06/20 10:21:45;;;;;;;;;22.00;17.00;;;;;;;;5047658;28;45395;-69
2022/06/20 10:24:29;;;;;;;;;18.33;17.33;;;;;;;;5030413;28;47116;-68
2022/06/20 10:27:06;;;;;;;;;18.67;17.00;;;;;;;;5045477;28;45410;-69
2022/06/20 10:29:31;;;;;;;;;17.67;14.67;;;;;;;;5046513;28;46233;-69
2022/06/20 10:32:23;;;;;;;;;13.75;13.75;;;;;;;;5048453;28;45345;-69
2022/06/20 10:35:04;;;;;;;;;18.33;16.33;;;;;;;;5033729;28;46202;-70
2022/06/20 10:37:46;;;;;;;;;15.33;15.33;;;;;;;;5049846;28;45305;-69
2022/06/20 10:40:14;;;;;;;;;14.33;12.00;;;;;;;;5053893;28;45230;-70
2022/06/20 10:42:58;;;;;;;;;15.00;15.00;;;;;;;;5055420;28;45682;-70
2022/06/20 10:45:27;;;;;;;;;16.33;15.33;;;;;;;;5061510;28;46794;-70
2022/06/20 10:48:11;;;;;;;;;17.00;15.00;;;;;;;;5036108;28;45516;-69
2022/06/20 10:50:56;;;;;;;;;15.00;13.67;;;;;;;;5060885;28;45438;-70
2022/06/20 10:53:27;;;;;;;;;19.00;15.00;;;;;;;;5036466;28;45601;-70
2022/06/20 10:56:01;;;;;;;;;15.00;12.33;;;;;;;;5040048;28;46496;-69
2022/06/20 10:58:32;;;;;;;;;17.67;15.67;;;;;;;;5055205;28;45334;-70
2022/06/20 11:01:08;;;;;;;;;12.00;12.00;;;;;;;;5058270;28;45380;-71
2022/06/20 11:03:42;;;;;;;;;14.67;13.00;;;;;;;;5034325;28;46294;-71
2022/06/20 11:06:25;;;;;;;;;13.33;13.33;;;;;;;;5050713;28;45482;-71
2022/06/20 11:08:56;;;;;;;;;13.00;12.33;;;;;;;;5048030;28;45352;-72
2022/06/20 11:11:30;;;;;;;;;15.67;15.67;;;;;;;;5046802;28;45419;-71
2022/06/20 11:14:01;;;;;;;;;14.67;12.67;;;;;;;;5051243;28;45716;-71
2022/06/20 11:16:33;;;;;;;;;17.00;13.00;;;;;;;;5029119;28;47010;-71
2022/06/20 11:19:08;;;;;;;;;12.67;12.00;;;;;;;;5048536;28;45563;-71
2022/06/20 11:21:42;;;;;;;;;14.33;11.33;;;;;;;;5048925;28;45277;-71
2022/06/20 11:24:13;;;;;;;;;15.33;13.67;;;;;;;;5035051;28;45925;-73
2022/06/20 11:26:57;;;;;;;;;19.00;15.33;;;;;;;;5054779;28;45491;-71
2022/06/20 11:29:32;;;;;;;;;15.67;14.33;;;;;;;;5044249;28;45359;-72
2022/06/20 11:32:15;;;;;;;;;13.00;13.00;;;;;;;;5047916;28;45521;-70
2022/06/20 11:34:40;;;;;;;;;14.00;12.67;;;;;;;;5047635;28;45462;-71
2022/06/20 11:37:24;;;;;;;;;14.00;10.67;;;;;;;;5046030;28;46011;-69
2022/06/20 11:40:07;;;;;;;;;16.33;14.33;;;;;;;;5035535;28;45686;-70
2022/06/20 11:42:32;;;;;;;;;13.00;10.67;;;;;;;;5052628;28;45332;-70
2022/06/20 11:45:17;;;;;;;;;10.00;9.33;;;;;;;;5055269;28;45344;-70
2022/06/20 11:48:01;;;;;;;;;11.00;11.00;;;;;;;;5055967;28;45276;-71
2022/06/20 11:50:33;;;;;;;;;18.33;13.67;;;;;;;;5049587;28;45241;-71
2022/06/20 11:53:09;;;;;;;;;13.00;12.33;;;;;;;;5051402;28;45391;-71
2022/06/20 11:55:38;;;;;;;;;13.00;12.00;;;;;;;;5048771;28;45399;-71
2022/06/20 11:58:09;;;;;;;;;16.00;11.33;;;;;;;;5052945;28;46097;-71
2022/06/20 12:00:39;;;;;;;;;12.67;11.00;;;;;;;;5041742;28;45724;-70
2022/06/20 12:03:04;;;;;;;;;12.00;11.00;;;;;;;;5048329;28;45477;-71
2022/06/20 12:05:36;;;;;;;;;15.00;14.00;;;;;;;;5043892;28;45247;-70
2022/06/20 12:08:33;;;;;;;;;14.00;13.33;;;;;;;;5048269;28;45447;-70
2022/06/20 12:11:04;;;;;;;;;11.00;11.00;;;;;;;;4980341;28;45460;-70
2022/06/20 12:13:35;;;;;;;;;11.33;10.33;;;;;;;;5045915;28;45229;-70
2022/06/20 12:16:15;;;;;;;;;12.33;11.67;;;;;;;;5044303;28;45495;-70
2022/06/20 12:24:18;;;;;;;;;15.67;12.00;;;;;;;;5047012;28;45202;-71
2022/06/20 12:26:43;;;;;;;;;11.50;11.00;;;;;;;;5029351;28;45427;-71
2022/06/20 12:29:14;;;;;;;;;12.67;12.00;;;;;;;;5039690;28;48329;-70
2022/06/20 12:31:43;;;;;;;;;14.33;12.00;;;;;;;;5029873;28;45713;-70
2022/06/20 12:34:19;;;;;;;;;12.33;11.67;;;;;;;;5053238;28;45276;-70
2022/06/20 12:36:47;;;;;;;;;10.33;9.00;;;;;;;;5050882;28;45471;-70
2022/06/20 12:39:33;;;;;;;;;9.33;9.33;;;;;;;;5050528;28;46513;-72
2022/06/20 12:42:08;;;;;;;;;9.67;8.00;;;;;;;;5010654;28;45530;-71
2022/06/20 12:44:47;;;;;;;;;10.75;8.50;;;;;;;;5049052;28;45376;-73
2022/06/20 12:47:27;;;;;;;;;10.67;8.67;;;;;;;;5043808;28;45458;-72
2022/06/20 12:49:58;;;;;;;;;9.25;8.00;;;;;;;;5044545;28;45304;-73
2022/06/20 12:52:32;;;;;;;;;7.50;6.50;;;;;;;;5045807;28;45291;-72
2022/06/20 12:55:07;;;;;;;;;11.00;8.50;;;;;;;;5039337;28;45321;-72
2022/06/20 12:57:51;;;;;;;;;8.75;8.00;;;;;;;;5052866;28;45470;-72
2022/06/20 13:00:27;;;;;;;;;8.25;7.50;;;;;;;;5050423;28;46255;-71
2022/06/20 13:02:52;;;;;;;;;9.75;8.00;;;;;;;;5046518;28;45384;-71
2022/06/20 13:05:20;;;;;;;;;9.00;7.50;;;;;;;;5052322;28;45479;-70
2022/06/20 13:07:55;;;;;;;;;9.00;7.75;;;;;;;;5047673;28;45381;-70
2022/06/20 13:10:40;;;;;;;;;7.00;7.00;;;;;;;;5025840;28;47096;-68
2022/06/20 13:13:37;;;;;;;;;7.75;7.25;;;;;;;;5035208;28;45327;-69
2022/06/20 13:16:21;;;;;;;;;9.25;9.25;;;;;;;;5000645;28;45325;-69
2022/06/20 13:18:52;;;;;;;;;5.00;3.75;;;;;;;;5050081;28;45557;-70
2022/06/20 13:21:24;;;;;;;;;6.25;6.25;;;;;;;;5036156;28;46782;-69
2022/06/20 13:24:00;;;;;;;;;10.25;9.75;;;;;;;;5034058;28;45298;-69
2022/06/20 13:26:42;;;;;;;;;10.75;8.00;;;;;;;;5049781;28;45311;-69
2022/06/20 13:29:37;;;;;;;;;12.25;10.50;;;;;;;;5037009;28;46712;-69
2022/06/20 13:32:05;;;;;;;;;10.50;9.25;;;;;;;;5025620;28;45381;-69
2022/06/20 13:34:51;;;;;;;;;11.00;9.25;;;;;;;;5053609;28;45335;-69
2022/06/20 13:37:27;;;;;;;;;12.00;10.75;;;;;;;;5034886;28;45487;-69
2022/06/20 13:40:14;;;;;;;;;13.50;11.75;;;;;;;;5053278;28;45491;-69
2022/06/20 13:42:45;;;;;;;;;9.25;9.25;;;;;;;;5035766;28;47165;-69
2022/06/20 13:45:19;;;;;;;;;10.00;8.50;;;;;;;;5052922;28;45304;-69
2022/06/20 13:48:10;;;;;;;;;9.00;9.00;;;;;;;;5048053;28;45415;-69
2022/06/20 13:50:42;;;;;;;;;12.50;11.50;;;;;;;;5051485;28;45475;-68
2022/06/20 13:53:08;;;;;;;;;10.50;9.50;;;;;;;;5049946;28;46322;-68
2022/06/20 13:55:42;;;;;;;;;10.00;10.00;;;;;;;;5050755;28;45429;-69
2022/06/20 13:58:20;;;;;;;;;11.50;11.50;;;;;;;;5049735;28;45446;-68
2022/06/20 14:00:54;;;;;;;;;13.00;10.75;;;;;;;;5057869;28;45548;-68
2022/06/20 14:03:39;;;;;;;;;12.50;11.75;;;;;;;;5036360;28;47987;-68
2022/06/20 14:06:07;;;;;;;;;13.25;11.75;;;;;;;;5027492;28;45258;-68
2022/06/20 14:08:33;;;;;;;;;14.25;13.00;;;;;;;;5051720;28;45328;-68
2022/06/20 14:10:59;;;;;;;;;10.50;8.25;;;;;;;;5045698;28;45287;-69
2022/06/20 14:13:34;;;;;;;;;10.75;10.75;;;;;;;;5027876;28;48294;-68
2022/06/20 14:16:17;;;;;;;;;14.75;12.75;;;;;;;;5045536;28;45368;-69
2022/06/20 14:19:08;;;;;;;;;11.25;11.25;;;;;;;;5044424;28;45387;-69
2022/06/20 14:21:35;;;;;;;;;11.50;9.75;;;;;;;;5024835;28;46288;-69
2022/06/20 14:24:01;;;;;;;;;15.00;13.50;;;;;;;;5031038;28;47210;-68
2022/06/20 15:30:03;;;;;;;;;9.00;8.75;;;;;;;;4888271;28;74209;-68
2022/06/20 15:32:32;;;;;;;;;13.25;8.75;;;;;;;;4881164;29;48127;-68
2022/06/20 15:35:12;;;;;;;;;9.75;9.00;;;;;;;;4886284;29;45325;-68
2022/06/20 15:37:37;;;;;;;;;10.50;8.75;;;;;;;;4895687;29;45550;-68
2022/06/20 15:40:06;;;;;;;;;8.00;7.50;;;;;;;;4884749;29;45723;-68
2022/06/20 15:42:40;;;;;;;;;7.00;7.00;;;;;;;;4886012;29;45445;-68
2022/06/20 15:45:07;;;;;;;;;9.75;6.00;;;;;;;;4884058;29;45488;-68
2022/06/20 15:47:33;;;;;;;;;6.25;5.75;;;;;;;;4886082;29;45332;-68
2022/06/20 15:49:58;;;;;;;;;9.00;7.75;;;;;;;;4886060;29;45191;-68
2022/06/20 15:52:31;;;;;;;;;8.00;7.00;;;;;;;;4885833;29;45719;-68
2022/06/20 15:55:00;;;;;;;;;5.50;5.50;;;;;;;;4884499;29;45416;-68
2022/06/20 15:57:25;;;;;;;;;9.00;7.75;;;;;;;;4885067;28;45451;-68
2022/06/20 16:00:11;;;;;;;;;7.75;6.50;;;;;;;;4885416;29;45361;-68
2022/06/20 16:02:42;;;;;;;;;5.00;5.00;;;;;;;;4885510;29;45279;-68